Time;durP1;ratioP1;P1;durP2;ratioP2;P2;SDS_P1;SDS_P2;PMS_P1;PMS_P2;Temp;Humidity;BMP_temperature;BMP_pressure;BME280_temperature;BME280_humidity;BME280_pressure;Samples;Min_cycle;Max_cycle;Signal;HPM_P1;HPM_P2
2022/06/30 00:00:42;;;;;;;15.77;14.15;;;19.80;99.90;;;;;;5091032;28;20119;-67
2022/06/30 00:03:08;;;;;;;19.95;16.25;;;19.70;99.90;;;;;;5091134;28;20209;-67
2022/06/30 00:05:34;;;;;;;19.70;14.48;;;19.60;99.90;;;;;;5087647;28;20079;-67
2022/06/30 00:07:59;;;;;;;22.48;14.38;;;19.60;99.90;;;;;;5081830;28;20450;-67
2022/06/30 00:10:25;;;;;;;18.00;14.13;;;19.60;99.90;;;;;;5090819;28;20040;-67
2022/06/30 00:12:51;;;;;;;16.88;13.70;;;19.50;99.90;;;;;;5088463;28;20147;-67
2022/06/30 00:15:17;;;;;;;22.63;14.50;;;19.30;99.90;;;;;;5090263;28;20032;-67
2022/06/30 00:17:42;;;;;;;15.77;14.10;;;19.20;99.90;;;;;;5090611;28;20040;-67
2022/06/30 00:20:09;;;;;;;15.82;14.35;;;19.10;99.90;;;;;;5090658;28;20036;-67
2022/06/30 00:22:34;;;;;;;15.23;12.93;;;18.90;99.90;;;;;;5082315;28;20055;-67
2022/06/30 00:25:00;;;;;;;20.42;14.88;;;18.80;99.90;;;;;;5089260;28;20028;-66
2022/06/30 00:27:26;;;;;;;14.63;13.18;;;18.50;99.90;;;;;;5090703;28;20040;-67
2022/06/30 00:29:51;;;;;;;16.33;14.65;;;18.50;99.90;;;;;;5090066;28;20402;-67
2022/06/30 00:32:17;;;;;;;16.52;14.82;;;18.40;99.90;;;;;;5090395;28;20044;-66
2022/06/30 00:34:43;;;;;;;14.23;12.75;;;18.30;99.90;;;;;;5090187;28;20123;-67
2022/06/30 00:37:08;;;;;;;18.92;14.02;;;18.40;99.90;;;;;;5090151;28;20504;-66
2022/06/30 00:39:35;;;;;;;13.88;12.45;;;18.40;99.90;;;;;;5089392;28;20039;-67
2022/06/30 00:42:01;;;;;;;13.93;12.52;;;18.40;99.90;;;;;;5077329;28;20082;-68
2022/06/30 00:44:28;;;;;;;18.85;13.00;;;18.30;99.90;;;;;;5080401;28;20092;-67
2022/06/30 00:46:54;;;;;;;16.55;12.20;;;18.30;99.90;;;;;;5093142;28;20445;-67
2022/06/30 00:49:20;;;;;;;15.88;12.27;;;18.30;99.90;;;;;;5089484;28;20150;-67
2022/06/30 00:51:46;;;;;;;23.70;12.77;;;18.40;99.90;;;;;;5081158;28;20041;-67
2022/06/30 00:54:12;;;;;;;19.50;12.50;;;18.40;99.90;;;;;;5089430;28;20040;-67
2022/06/30 00:56:43;;;;;;;15.27;13.65;;;18.40;99.90;;;;;;5089267;28;20044;-67
2022/06/30 00:59:12;;;;;;;17.25;13.02;;;18.40;99.90;;;;;;5084146;28;20044;-67
2022/06/30 01:01:38;;;;;;;15.05;12.15;;;18.40;99.90;;;;;;5087339;28;20040;-68
2022/06/30 01:04:07;;;;;;;14.27;12.88;;;18.40;99.90;;;;;;5087561;28;20414;-67
2022/06/30 01:06:33;;;;;;;12.70;11.40;;;18.30;99.90;;;;;;5060178;28;20478;-68
2022/06/30 01:08:59;;;;;;;13.98;12.55;;;18.40;99.90;;;;;;5048241;28;20410;-67
2022/06/30 01:14:09;;;;;;;12.75;11.38;;;18.40;99.90;;;;;;5051455;28;20095;-68
2022/06/30 01:16:39;;;;;;;12.57;11.10;;;18.40;99.90;;;;;;5058622;28;20481;-68
2022/06/30 01:19:05;;;;;;;16.02;12.13;;;18.40;99.90;;;;;;5054936;28;20052;-67
2022/06/30 01:21:31;;;;;;;14.20;11.73;;;18.40;99.90;;;;;;5049052;28;20045;-67
2022/06/30 01:23:58;;;;;;;14.68;13.15;;;18.40;99.90;;;;;;5053012;28;20048;-67
2022/06/30 01:26:24;;;;;;;15.20;12.98;;;18.40;99.90;;;;;;5053766;28;20476;-67
2022/06/30 01:28:53;;;;;;;21.90;13.25;;;18.30;99.90;;;;;;5064999;28;20494;-67
2022/06/30 01:31:19;;;;;;;14.35;12.52;;;18.30;99.90;;;;;;5060501;28;20037;-67
2022/06/30 01:33:51;;;;;;;13.45;12.32;;;18.30;99.90;;;;;;5051066;28;20056;-67
2022/06/30 01:36:16;;;;;;;15.18;12.75;;;18.30;99.90;;;;;;5052216;28;20040;-67
2022/06/30 01:38:42;;;;;;;14.45;13.00;;;18.20;99.90;;;;;;5067007;28;20036;-67
2022/06/30 01:41:08;;;;;;;17.88;13.35;;;18.20;99.90;;;;;;5052248;28;20044;-67
2022/06/30 01:43:33;;;;;;;15.27;13.65;;;18.20;99.90;;;;;;5059307;28;20460;-68
2022/06/30 01:45:59;;;;;;;13.88;12.43;;;18.20;99.90;;;;;;5051231;28;20410;-68
2022/06/30 01:48:25;;;;;;;17.92;12.77;;;18.20;99.90;;;;;;5054193;28;20473;-67
2022/06/30 01:50:50;;;;;;;14.38;12.25;;;18.10;99.90;;;;;;5048513;28;20049;-67
2022/06/30 01:53:17;;;;;;;13.73;12.43;;;18.20;99.90;;;;;;5061230;28;20121;-67
2022/06/30 01:55:43;;;;;;;15.02;12.40;;;18.20;99.90;;;;;;5062640;28;20047;-67
2022/06/30 01:58:08;;;;;;;14.02;12.65;;;18.20;99.90;;;;;;5056453;28;20037;-67
2022/06/30 02:00:34;;;;;;;16.80;12.02;;;18.20;99.90;;;;;;5048590;28;20087;-67
2022/06/30 02:03:00;;;;;;;13.40;12.10;;;18.30;99.90;;;;;;5047533;28;20501;-67
2022/06/30 02:05:26;;;;;;;14.07;11.35;;;18.30;99.90;;;;;;5047830;28;20041;-67
2022/06/30 02:07:52;;;;;;;13.18;12.00;;;18.40;99.90;;;;;;5086805;28;20059;-67
2022/06/30 02:10:20;;;;;;;13.50;12.23;;;18.40;99.90;;;;;;5088283;28;20044;-67
2022/06/30 02:12:46;;;;;;;14.40;13.05;;;18.40;99.90;;;;;;5088036;28;20108;-67
2022/06/30 02:15:15;;;;;;;13.95;12.40;;;18.40;99.90;;;;;;5088262;28;20490;-67
2022/06/30 02:17:41;;;;;;;18.45;12.48;;;18.30;99.90;;;;;;5088059;28;20133;-67
2022/06/30 02:20:08;;;;;;;22.60;14.05;;;18.30;99.90;;;;;;5088643;28;20497;-68
2022/06/30 02:22:38;;;;;;;13.25;10.77;;;18.30;99.90;;;;;;5081390;28;20082;-67
2022/06/30 02:25:06;;;;;;;14.45;12.32;;;18.30;99.90;;;;;;5087998;28;20047;-67
2022/06/30 02:27:32;;;;;;;16.88;13.63;;;18.30;99.90;;;;;;5088286;28;20044;-67
2022/06/30 02:29:57;;;;;;;18.02;12.65;;;18.30;99.90;;;;;;5088092;28;20063;-67
2022/06/30 02:32:23;;;;;;;16.95;12.43;;;18.30;99.90;;;;;;5088037;28;20077;-67
2022/06/30 02:34:50;;;;;;;13.52;12.20;;;18.20;99.90;;;;;;5076910;28;20036;-67
2022/06/30 02:37:16;;;;;;;14.10;11.45;;;18.20;99.90;;;;;;5087726;28;20039;-67
2022/06/30 02:39:42;;;;;;;13.15;11.93;;;18.00;99.90;;;;;;5082656;28;20408;-67
2022/06/30 02:42:08;;;;;;;13.77;12.38;;;18.00;99.90;;;;;;5088521;28;20074;-67
2022/06/30 02:44:34;;;;;;;19.45;11.88;;;17.90;99.90;;;;;;5085516;28;20032;-67
2022/06/30 02:47:00;;;;;;;16.08;12.88;;;18.00;99.90;;;;;;5067789;28;20127;-67
2022/06/30 02:49:27;;;;;;;13.98;12.50;;;18.00;99.90;;;;;;5084266;28;20450;-67
2022/06/30 02:51:52;;;;;;;17.05;12.80;;;18.00;99.90;;;;;;5084052;28;20232;-67
2022/06/30 02:54:18;;;;;;;15.65;13.10;;;18.00;99.90;;;;;;5087603;28;20056;-67
2022/06/30 02:56:44;;;;;;;14.27;12.98;;;18.00;99.90;;;;;;5087546;28;20028;-67
2022/06/30 02:59:10;;;;;;;17.27;14.50;;;18.00;99.90;;;;;;5087040;28;20115;-68
2022/06/30 03:01:35;;;;;;;14.30;12.88;;;17.90;99.90;;;;;;5087436;28;20055;-68
2022/06/30 03:04:02;;;;;;;14.63;13.05;;;17.80;99.90;;;;;;5087601;28;20413;-68
2022/06/30 03:06:32;;;;;;;14.73;13.43;;;17.70;99.90;;;;;;5057785;28;20148;-68
2022/06/30 03:08:59;;;;;;;17.58;13.80;;;17.50;99.90;;;;;;5045566;28;20465;-68
2022/06/30 03:11:25;;;;;;;18.23;14.10;;;17.50;99.90;;;;;;5047090;28;20095;-68
2022/06/30 03:13:51;;;;;;;17.02;14.73;;;17.40;99.90;;;;;;5042156;28;20078;-68
2022/06/30 03:16:17;;;;;;;18.30;14.05;;;17.40;99.90;;;;;;5050033;28;21025;-68
2022/06/30 03:18:44;;;;;;;16.95;15.30;;;17.40;99.90;;;;;;5050275;28;20048;-68
2022/06/30 03:21:10;;;;;;;16.02;14.35;;;17.40;99.90;;;;;;5054234;28;20049;-68
2022/06/30 03:23:36;;;;;;;16.50;13.40;;;17.40;99.90;;;;;;5053443;28;20540;-68
2022/06/30 03:26:03;;;;;;;18.60;15.98;;;17.40;99.90;;;;;;5053794;28;20392;-68
2022/06/30 03:28:29;;;;;;;19.88;13.52;;;17.40;99.90;;;;;;5052902;28;20429;-68
2022/06/30 03:30:55;;;;;;;15.77;14.18;;;17.30;99.90;;;;;;5050640;28;20049;-68
2022/06/30 03:33:21;;;;;;;17.30;15.07;;;17.30;99.90;;;;;;5053655;28;20044;-68
2022/06/30 03:35:47;;;;;;;22.35;14.98;;;17.30;99.90;;;;;;5053708;28;20060;-68
2022/06/30 03:38:14;;;;;;;17.23;15.40;;;17.30;99.90;;;;;;5053615;28;20060;-68
2022/06/30 03:40:40;;;;;;;18.10;15.88;;;17.30;99.90;;;;;;5053730;28;20120;-68
2022/06/30 03:43:06;;;;;;;17.88;15.32;;;17.30;99.90;;;;;;5051630;28;20049;-68
2022/06/30 03:45:33;;;;;;;16.98;15.23;;;17.20;99.90;;;;;;5053375;28;20153;-68
2022/06/30 03:48:03;;;;;;;20.30;15.48;;;17.10;99.90;;;;;;5053090;28;20045;-67
2022/06/30 03:50:31;;;;;;;18.77;16.02;;;16.90;99.90;;;;;;5048803;28;20498;-68
2022/06/30 03:52:58;;;;;;;19.52;16.70;;;16.90;99.90;;;;;;5053576;28;20052;-68
2022/06/30 03:55:24;;;;;;;20.15;16.55;;;16.80;99.90;;;;;;5053753;28;20044;-68
2022/06/30 03:57:50;;;;;;;18.30;16.40;;;16.90;99.90;;;;;;5051110;28;20555;-68
2022/06/30 04:00:16;;;;;;;17.95;15.55;;;16.90;99.90;;;;;;5052262;28;20045;-67
2022/06/30 04:02:42;;;;;;;16.85;15.30;;;16.90;99.90;;;;;;5052095;28;20045;-68
2022/06/30 04:05:08;;;;;;;17.65;15.43;;;16.90;99.90;;;;;;5042776;28;20107;-68
2022/06/30 04:07:44;;;;;;;17.33;14.52;;;16.90;99.90;;;;;;5087001;28;20059;-67
2022/06/30 04:10:11;;;;;;;25.63;16.08;;;16.90;99.90;;;;;;5093606;28;20044;-67
2022/06/30 04:12:46;;;;;;;17.50;15.63;;;17.00;99.90;;;;;;5069228;28;20554;-67
2022/06/30 04:15:15;;;;;;;16.90;15.27;;;17.00;99.90;;;;;;5092651;28;20044;-68
2022/06/30 04:17:40;;;;;;;18.77;15.35;;;17.00;99.90;;;;;;5088622;28;20044;-68
2022/06/30 04:20:17;;;;;;;18.40;15.27;;;17.00;99.90;;;;;;5090384;28;20074;-68
2022/06/30 04:22:44;;;;;;;17.40;15.02;;;17.10;99.90;;;;;;5093558;28;20054;-68
2022/06/30 04:25:10;;;;;;;28.08;17.67;;;17.20;99.90;;;;;;5090879;28;20105;-67
2022/06/30 04:27:39;;;;;;;17.52;15.80;;;17.20;99.90;;;;;;5089834;28;20163;-68
2022/06/30 04:30:05;;;;;;;20.20;15.70;;;17.20;99.90;;;;;;5090299;28;20048;-69
2022/06/30 04:32:38;;;;;;;20.58;17.67;;;17.30;99.90;;;;;;5083069;28;20125;-68
2022/06/30 04:35:12;;;;;;;20.15;16.52;;;17.30;99.90;;;;;;5071272;28;20044;-68
2022/06/30 04:37:38;;;;;;;19.13;17.13;;;17.40;99.90;;;;;;5088067;28;20068;-68
2022/06/30 04:42:50;;;;;;;21.50;16.20;;;17.50;99.90;;;;;;5088996;28;20417;-68
2022/06/30 04:45:15;;;;;;;18.02;14.85;;;17.50;99.90;;;;;;5080556;28;20040;-68
2022/06/30 04:47:41;;;;;;;18.17;16.00;;;17.50;99.90;;;;;;5089390;28;20052;-68
2022/06/30 04:50:08;;;;;;;16.77;14.90;;;17.50;99.90;;;;;;5089842;28;20385;-68
2022/06/30 04:52:39;;;;;;;18.35;15.52;;;17.50;99.90;;;;;;5083911;28;20056;-68
2022/06/30 04:55:05;;;;;;;22.17;14.75;;;17.60;99.90;;;;;;5089703;28;20040;-68
2022/06/30 04:57:31;;;;;;;20.67;16.88;;;17.60;99.90;;;;;;5087577;28;20059;-68
2022/06/30 04:59:57;;;;;;;23.60;16.48;;;17.70;99.90;;;;;;5089180;28;20032;-68
2022/06/30 05:02:22;;;;;;;18.33;16.13;;;17.80;99.90;;;;;;5088871;28;20048;-68
2022/06/30 05:04:48;;;;;;;18.23;16.30;;;17.80;99.90;;;;;;5089456;28;20039;-69
2022/06/30 05:07:13;;;;;;;23.55;16.88;;;17.80;99.90;;;;;;5084625;28;20056;-68
2022/06/30 05:09:39;;;;;;;22.58;17.42;;;17.90;99.90;;;;;;5089100;28;20043;-68
2022/06/30 05:12:05;;;;;;;20.63;17.25;;;17.90;99.90;;;;;;5087907;28;20040;-68
2022/06/30 05:14:31;;;;;;;19.95;16.92;;;18.00;99.90;;;;;;5088830;28;20039;-68
2022/06/30 05:16:56;;;;;;;22.95;17.30;;;18.00;99.90;;;;;;5087539;28;20040;-67
2022/06/30 05:19:22;;;;;;;24.42;19.77;;;18.00;99.90;;;;;;5088598;28;20692;-68
2022/06/30 05:21:48;;;;;;;18.88;16.17;;;18.10;99.90;;;;;;5089340;28;20061;-68
2022/06/30 05:26:57;;;;;;;19.17;17.25;;;18.00;99.90;;;;;;5088929;28;20051;-68
2022/06/30 05:29:23;;;;;;;21.38;18.17;;;18.00;99.90;;;;;;5089012;28;20036;-68
2022/06/30 05:31:49;;;;;;;21.52;18.23;;;18.00;99.90;;;;;;5085484;28;20036;-67
2022/06/30 05:34:14;;;;;;;19.85;17.63;;;18.00;99.90;;;;;;5081457;28;20044;-67
2022/06/30 05:36:40;;;;;;;20.48;18.20;;;18.10;99.90;;;;;;5087801;28;20036;-67
2022/06/30 05:39:06;;;;;;;23.33;17.75;;;18.10;99.90;;;;;;5088934;28;20098;-67
2022/06/30 05:41:31;;;;;;;17.80;16.00;;;18.20;99.90;;;;;;5088577;28;20501;-67
2022/06/30 05:43:57;;;;;;;24.50;18.73;;;18.30;99.90;;;;;;5069490;28;20507;-67
2022/06/30 05:46:23;;;;;;;21.08;18.80;;;18.40;99.90;;;;;;5078724;28;20405;-67
2022/06/30 05:48:48;;;;;;;21.75;19.45;;;18.50;99.90;;;;;;5087969;28;20088;-66
2022/06/30 05:51:14;;;;;;;22.02;18.48;;;18.60;99.90;;;;;;5088651;28;20040;-67
2022/06/30 05:53:40;;;;;;;16.98;15.23;;;18.80;99.90;;;;;;5080596;28;20048;-67
2022/06/30 05:56:05;;;;;;;19.48;17.38;;;18.90;99.90;;;;;;5083753;28;20051;-67
2022/06/30 05:58:31;;;;;;;23.33;17.25;;;19.00;99.90;;;;;;5091253;28;20436;-67
2022/06/30 06:00:57;;;;;;;19.85;17.13;;;19.10;99.90;;;;;;5086804;28;20096;-66
2022/06/30 06:03:22;;;;;;;19.80;17.80;;;19.20;99.90;;;;;;5062334;28;20516;-67
2022/06/30 06:05:48;;;;;;;24.48;18.08;;;19.30;99.90;;;;;;5081954;28;20064;-66
2022/06/30 06:08:15;;;;;;;20.70;16.42;;;19.40;99.90;;;;;;5087415;28;20050;-66
2022/06/30 06:10:45;;;;;;;20.02;16.48;;;19.50;99.90;;;;;;5085479;28;20156;-66
2022/06/30 06:13:13;;;;;;;18.83;16.48;;;19.70;99.90;;;;;;5079467;28;20044;-66
2022/06/30 06:15:41;;;;;;;18.95;16.35;;;19.70;99.90;;;;;;5079154;28;20169;-67
2022/06/30 06:18:08;;;;;;;18.35;16.40;;;19.80;99.90;;;;;;5062960;28;20055;-66
2022/06/30 06:20:34;;;;;;;30.20;17.00;;;19.80;99.90;;;;;;5084214;28;20872;-66
2022/06/30 06:23:03;;;;;;;18.48;16.20;;;19.90;99.90;;;;;;5084930;28;20066;-67
2022/06/30 06:25:29;;;;;;;20.02;17.58;;;20.00;99.90;;;;;;5085223;28;20127;-66
2022/06/30 06:30:39;;;;;;;18.63;16.20;;;20.30;99.90;;;;;;5084669;28;20052;-66
2022/06/30 06:33:04;;;;;;;21.48;17.00;;;20.40;99.90;;;;;;5086983;28;20052;-67
2022/06/30 06:35:30;;;;;;;19.58;15.88;;;20.60;99.90;;;;;;5083757;28;20086;-67
2022/06/30 06:37:56;;;;;;;17.10;14.32;;;20.70;99.90;;;;;;5068867;28;20032;-67
2022/06/30 06:40:22;;;;;;;15.68;14.13;;;20.90;99.90;;;;;;5082921;28;20078;-66
2022/06/30 06:42:47;;;;;;;31.35;15.88;;;21.00;99.90;;;;;;5083461;28;20047;-65
2022/06/30 06:45:13;;;;;;;24.35;14.35;;;21.10;99.90;;;;;;5087925;28;20829;-67
2022/06/30 06:47:40;;;;;;;15.85;14.27;;;21.30;99.90;;;;;;5087103;28;20063;-67
2022/06/30 06:50:07;;;;;;;16.50;14.63;;;21.40;99.90;;;;;;5087481;28;20127;-67
2022/06/30 06:52:33;;;;;;;21.98;14.45;;;21.60;99.90;;;;;;5087760;28;20044;-67
2022/06/30 06:54:59;;;;;;;16.70;14.88;;;21.80;99.90;;;;;;5087342;28;20077;-68
2022/06/30 06:57:24;;;;;;;16.20;13.43;;;21.90;99.90;;;;;;5086663;28;20048;-67
2022/06/30 06:59:50;;;;;;;22.00;15.40;;;22.10;99.90;;;;;;5086383;28;20044;-67
2022/06/30 07:02:15;;;;;;;15.23;13.63;;;22.30;99.90;;;;;;5079578;28;20047;-67
2022/06/30 07:04:42;;;;;;;14.38;12.60;;;22.60;99.90;;;;;;5086548;28;20090;-67
2022/06/30 07:07:08;;;;;;;14.73;12.45;;;22.80;99.90;;;;;;5086079;28;20056;-67
2022/06/30 07:09:34;;;;;;;15.73;13.35;;;23.10;99.90;;;;;;5082752;28;20048;-67
2022/06/30 07:12:00;;;;;;;14.98;13.43;;;23.20;99.90;;;;;;5083180;28;20036;-67
2022/06/30 07:14:26;;;;;;;15.63;13.38;;;23.20;99.90;;;;;;5086457;28;20389;-67
2022/06/30 07:16:51;;;;;;;14.20;12.82;;;23.30;99.90;;;;;;5092145;28;20109;-67
2022/06/30 07:19:17;;;;;;;16.05;14.25;;;23.40;99.90;;;;;;5082005;28;20044;-67
2022/06/30 07:21:43;;;;;;;16.80;13.32;;;23.50;99.90;;;;;;5081795;28;20099;-67
2022/06/30 07:24:08;;;;;;;14.07;12.68;;;23.60;99.90;;;;;;5078104;28;20032;-67
2022/06/30 07:26:34;;;;;;;15.13;13.52;;;23.80;99.90;;;;;;5078235;28;20032;-68
2022/06/30 07:28:59;;;;;;;15.65;13.75;;;23.80;99.90;;;;;;5085735;28;20102;-67
2022/06/30 07:31:25;;;;;;;17.35;13.50;;;23.80;99.90;;;;;;5088156;28;20036;-67
2022/06/30 07:33:52;;;;;;;15.85;14.23;;;23.90;99.90;;;;;;5087504;28;20051;-67
2022/06/30 07:36:17;;;;;;;20.23;15.15;;;24.10;99.90;;;;;;5086888;28;20044;-68
2022/06/30 07:38:44;;;;;;;25.70;14.60;;;24.30;99.90;;;;;;5076024;28;20049;-68
2022/06/30 07:41:10;;;;;;;16.15;14.45;;;24.50;99.90;;;;;;5076273;28;20059;-68
2022/06/30 07:43:36;;;;;;;15.77;13.90;;;24.80;99.90;;;;;;5085264;28;20048;-68
2022/06/30 07:46:03;;;;;;;16.08;14.00;;;25.00;99.90;;;;;;5074125;28;20048;-67
2022/06/30 07:48:29;;;;;;;16.53;13.80;;;25.20;99.90;;;;;;5085034;28;20520;-67
2022/06/30 07:50:54;;;;;;;18.45;15.48;;;25.30;99.90;;;;;;5087166;28;20274;-68
2022/06/30 07:53:20;;;;;;;15.48;13.98;;;25.40;99.90;;;;;;5086425;28;20493;-67
2022/06/30 07:55:46;;;;;;;19.80;15.45;;;25.60;99.90;;;;;;5085946;28;20037;-68
2022/06/30 07:58:11;;;;;;;17.00;15.25;;;25.70;99.90;;;;;;5079670;28;20040;-67
2022/06/30 08:00:37;;;;;;;16.30;14.63;;;25.90;99.90;;;;;;5082550;28;20135;-68
2022/06/30 08:03:03;;;;;;;15.98;14.40;;;26.00;99.90;;;;;;5088921;28;20501;-67
2022/06/30 08:05:29;;;;;;;16.80;14.38;;;26.00;99.90;;;;;;5089315;28;20141;-67
2022/06/30 08:07:54;;;;;;;15.65;14.00;;;26.10;99.90;;;;;;5090035;28;20052;-67
2022/06/30 08:10:20;;;;;;;15.77;14.27;;;26.30;99.90;;;;;;5089053;28;20121;-67
2022/06/30 08:12:45;;;;;;;20.40;15.48;;;26.40;99.90;;;;;;5083537;28;20090;-67
2022/06/30 08:15:11;;;;;;;17.60;15.95;;;26.60;99.90;;;;;;5086228;28;20834;-68
2022/06/30 08:17:37;;;;;;;17.52;15.68;;;26.60;99.90;;;;;;5077074;28;20043;-67
2022/06/30 08:20:03;;;;;;;17.25;15.45;;;26.70;99.90;;;;;;5089789;28;20052;-67
2022/06/30 08:22:29;;;;;;;22.67;16.20;;;26.80;99.90;;;;;;5080469;28;20051;-68
2022/06/30 08:24:55;;;;;;;18.58;16.70;;;27.00;99.90;;;;;;5089716;28;20040;-68
2022/06/30 08:27:21;;;;;;;18.02;15.57;;;26.90;99.90;;;;;;5090060;28;20040;-68
2022/06/30 08:29:47;;;;;;;18.65;15.10;;;27.00;99.90;;;;;;5083184;28;20104;-68
2022/06/30 08:32:12;;;;;;;21.25;15.75;;;26.90;99.90;;;;;;5063920;28;20048;-67
2022/06/30 08:34:38;;;;;;;19.45;17.70;;;27.10;99.90;;;;;;5088201;28;20055;-67
2022/06/30 08:37:04;;;;;;;17.35;15.52;;;27.20;99.90;;;;;;5082620;28;20041;-67
2022/06/30 08:42:17;;;;;;;20.67;17.52;;;27.70;99.90;;;;;;5089049;28;20097;-67
2022/06/30 08:44:43;;;;;;;18.48;16.55;;;27.80;99.90;;;;;;5084194;28;20106;-68
2022/06/30 08:47:09;;;;;;;18.60;16.70;;;28.00;99.90;;;;;;5077876;28;20093;-68
2022/06/30 08:49:35;;;;;;;19.23;17.23;;;28.00;99.90;;;;;;5076415;28;20499;-67
2022/06/30 08:52:02;;;;;;;22.65;17.17;;;27.90;99.90;;;;;;5082147;28;20032;-68
2022/06/30 08:54:28;;;;;;;;;;;28.00;99.90;;;;;;5086410;28;20056;-68
2022/06/30 08:56:56;;;;;;;20.40;18.58;;;28.10;99.90;;;;;;5085923;28;19927;-68
2022/06/30 08:59:24;;;;;;;19.55;17.52;;;28.10;99.90;;;;;;5082012;28;20040;-68
2022/06/30 09:01:50;;;;;;;19.10;17.40;;;28.20;99.90;;;;;;5066467;28;20060;-68
2022/06/30 09:04:16;;;;;;;19.70;17.80;;;28.00;99.90;;;;;;5087222;28;20123;-68
2022/06/30 09:06:45;;;;;;;18.98;17.17;;;28.10;99.90;;;;;;5086890;28;20177;-67
2022/06/30 09:09:11;;;;;;;19.30;17.55;;;28.10;99.90;;;;;;5085082;28;20405;-67
2022/06/30 09:12:03;;;;;;;21.27;19.05;;;28.20;99.90;;;;;;5068895;28;20040;-67
2022/06/30 09:14:42;;;;;;;21.35;18.90;;;28.30;99.90;;;;;;5071921;28;20048;-68
2022/06/30 09:17:10;;;;;;;21.08;18.88;;;28.50;99.90;;;;;;5084607;28;20044;-68
2022/06/30 09:19:40;;;;;;;20.92;18.88;;;28.60;99.90;;;;;;5089010;28;20455;-68
2022/06/30 09:22:14;;;;;;;19.98;17.83;;;28.70;99.90;;;;;;5084343;28;20040;-68
2022/06/30 09:24:40;;;;;;;19.30;17.50;;;28.80;99.90;;;;;;5085267;28;20052;-67
2022/06/30 09:27:11;;;;;;;21.43;19.20;;;29.10;99.90;;;;;;5080482;28;20056;-68
2022/06/30 09:29:50;;;;;;;18.65;16.73;;;29.30;97.50;;;;;;5086931;28;20778;-68
2022/06/30 09:32:16;;;;;;;28.02;19.42;;;29.50;95.70;;;;;;5086820;28;20574;-66
2022/06/30 09:34:42;;;;;;;21.70;19.50;;;29.40;94.70;;;;;;5079566;28;20041;-67
2022/06/30 09:37:18;;;;;;;22.63;19.17;;;29.50;93.30;;;;;;5083089;28;20544;-67
2022/06/30 09:39:45;;;;;;;21.77;19.20;;;29.40;91.40;;;;;;5085061;28;20048;-67
2022/06/30 09:42:12;;;;;;;21.27;18.98;;;29.50;92.90;;;;;;5084961;28;20097;-67
2022/06/30 09:44:38;;;;;;;21.45;19.15;;;29.60;92.60;;;;;;5082941;28;20131;-68
2022/06/30 09:47:06;;;;;;;22.90;20.60;;;29.70;92.80;;;;;;5084154;28;20076;-68
2022/06/30 09:49:42;;;;;;;21.73;19.45;;;29.70;92.80;;;;;;5082105;28;20694;-68
2022/06/30 09:52:23;;;;;;;31.52;21.92;;;29.60;84.30;;;;;;5066828;28;20111;-68
2022/06/30 09:55:06;;;;;;;23.38;21.00;;;29.70;91.20;;;;;;5085785;28;20569;-67
2022/06/30 09:57:45;;;;;;;24.45;20.00;;;29.60;90.20;;;;;;5079689;28;20039;-66
2022/06/30 10:00:13;;;;;;;22.20;20.10;;;29.60;89.50;;;;;;5088214;28;20093;-67
2022/06/30 10:02:49;;;;;;;20.73;18.63;;;29.60;93.20;;;;;;5084157;28;20036;-67
2022/06/30 10:05:16;;;;;;;21.02;19.15;;;29.70;92.70;;;;;;5085466;28;20041;-67
2022/06/30 10:07:43;;;;;;;21.48;19.33;;;29.70;90.60;;;;;;5084424;28;20056;-65
2022/06/30 10:10:12;;;;;;;22.08;19.85;;;29.70;94.40;;;;;;5084072;28;20054;-67
2022/06/30 10:12:40;;;;;;;21.63;19.50;;;29.60;92.70;;;;;;5083424;28;20574;-67
2022/06/30 10:15:07;;;;;;;24.80;22.10;;;29.60;94.80;;;;;;5082225;28;20044;-67
2022/06/30 10:17:45;;;;;;;23.98;19.80;;;29.70;90.50;;;;;;5084283;28;20043;-66
2022/06/30 10:20:15;;;;;;;24.63;22.23;;;29.70;93.70;;;;;;5065699;28;20508;-67
2022/06/30 10:22:59;;;;;;;21.75;19.52;;;29.70;91.40;;;;;;5084975;28;20549;-67
2022/06/30 10:25:28;;;;;;;22.35;20.30;;;29.70;90.50;;;;;;5085843;28;20043;-67
2022/06/30 10:27:56;;;;;;;24.70;20.58;;;29.50;90.50;;;;;;5085606;28;20044;-67
2022/06/30 10:30:29;;;;;;;22.13;19.77;;;29.30;91.20;;;;;;5085330;28;20074;-67
2022/06/30 10:33:25;;;;;;;22.77;20.55;;;29.60;91.40;;;;;;5083321;28;20555;-67
2022/06/30 10:36:05;;;;;;;24.00;19.55;;;29.40;90.00;;;;;;5085986;28;20036;-67
2022/06/30 10:38:50;;;;;;;23.55;21.17;;;29.10;93.20;;;;;;5086356;28;20040;-67
2022/06/30 10:41:17;;;;;;;22.67;20.63;;;28.90;95.00;;;;;;5086358;28;20040;-67
2022/06/30 10:44:05;;;;;;;23.48;21.15;;;28.70;99.90;;;;;;5087695;28;20035;-67
2022/06/30 10:46:56;;;;;;;22.58;20.23;;;28.50;99.90;;;;;;5087235;28;20074;-68
2022/06/30 10:49:27;;;;;;;23.80;21.42;;;28.50;99.90;;;;;;5073133;28;20064;-67
2022/06/30 10:52:16;;;;;;;26.00;22.70;;;28.50;99.90;;;;;;5084653;28;20035;-67
2022/06/30 10:54:45;;;;;;;24.23;21.88;;;28.40;99.90;;;;;;5083389;28;20405;-67
2022/06/30 10:57:16;;;;;;;21.90;19.80;;;28.50;99.90;;;;;;5087266;28;20105;-67
2022/06/30 10:59:42;;;;;;;23.10;20.88;;;28.90;99.90;;;;;;5087593;28;20051;-67
2022/06/30 11:02:10;;;;;;;25.30;22.60;;;29.10;96.60;;;;;;5087727;28;20036;-67
2022/06/30 11:04:48;;;;;;;23.88;21.30;;;29.20;94.90;;;;;;5085595;28;20044;-68
2022/06/30 11:07:21;;;;;;;24.20;21.92;;;29.10;95.40;;;;;;5085346;28;20069;-67
2022/06/30 11:09:47;;;;;;;25.50;22.98;;;28.90;97.60;;;;;;5087238;28;20119;-68
2022/06/30 11:12:19;;;;;;;24.60;22.27;;;28.70;99.90;;;;;;5051971;28;20055;-67
2022/06/30 11:14:50;;;;;;;26.75;22.50;;;28.50;99.90;;;;;;5087420;28;20047;-67
2022/06/30 11:17:20;;;;;;;25.52;22.88;;;28.30;99.90;;;;;;5082452;28;20492;-67
2022/06/30 11:19:47;;;;;;;24.48;22.02;;;28.30;99.90;;;;;;5086843;28;20619;-67
2022/06/30 11:22:20;;;;;;;27.85;23.00;;;28.20;99.90;;;;;;5087847;28;20131;-68
2022/06/30 11:24:50;;;;;;;25.50;23.10;;;28.30;99.90;;;;;;5082984;28;20036;-67
2022/06/30 11:27:23;;;;;;;23.70;21.30;;;28.50;99.90;;;;;;5087478;28;20063;-67
2022/06/30 11:29:57;;;;;;;25.33;22.67;;;28.60;99.90;;;;;;5081732;28;20051;-67
2022/06/30 11:32:24;;;;;;;22.50;20.20;;;28.80;99.90;;;;;;5086671;28;20096;-67
2022/06/30 11:34:50;;;;;;;24.55;22.05;;;28.90;99.90;;;;;;5089064;28;20421;-67
2022/06/30 11:37:27;;;;;;;30.63;22.80;;;29.00;99.90;;;;;;5091427;28;20456;-67
2022/06/30 11:39:56;;;;;;;23.40;21.13;;;28.90;99.90;;;;;;5091177;28;20054;-67
2022/06/30 11:42:22;;;;;;;24.73;22.38;;;28.90;97.80;;;;;;5088248;28;20044;-67
2022/06/30 11:44:48;;;;;;;20.60;18.67;;;28.90;96.20;;;;;;5090412;28;20032;-67
2022/06/30 11:47:16;;;;;;;19.58;17.52;;;28.80;91.60;;;;;;5085046;28;20613;-67
2022/06/30 11:50:04;;;;;;;19.38;17.48;;;28.80;90.10;;;;;;5091029;28;20043;-65
2022/06/30 11:52:29;;;;;;;17.88;15.77;;;29.00;89.00;;;;;;5083117;28;20558;-67
2022/06/30 11:54:57;;;;;;;21.35;16.73;;;29.10;86.70;;;;;;5083504;28;20040;-65
2022/06/30 11:57:34;;;;;;;18.83;17.05;;;29.00;89.00;;;;;;5090139;28;20409;-68
2022/06/30 12:00:03;;;;;;;24.90;18.42;;;28.80;94.90;;;;;;5091071;28;20413;-67
2022/06/30 12:02:30;;;;;;;18.17;16.35;;;28.80;92.80;;;;;;5083888;28;20048;-68
2022/06/30 12:04:58;;;;;;;18.83;16.98;;;28.80;95.60;;;;;;5087871;28;20044;-67
2022/06/30 12:07:26;;;;;;;17.02;15.18;;;28.90;94.00;;;;;;5089972;28;20056;-67
2022/06/30 12:09:53;;;;;;;18.50;16.25;;;29.10;91.00;;;;;;5079695;28;20478;-68
2022/06/30 12:12:23;;;;;;;16.77;15.18;;;29.20;89.70;;;;;;5088250;28;20051;-67
2022/06/30 12:14:57;;;;;;;21.05;19.15;;;29.40;85.60;;;;;;5084786;28;20417;-67
2022/06/30 12:17:23;;;;;;;23.13;20.85;;;29.50;91.60;;;;;;5090149;28;20048;-67
2022/06/30 12:19:50;;;;;;;21.88;19.73;;;29.70;94.30;;;;;;5090339;28;20036;-67
2022/06/30 12:22:18;;;;;;;23.38;21.08;;;30.00;90.80;;;;;;5088933;28;20044;-68
2022/06/30 12:24:46;;;;;;;16.60;15.20;;;29.90;91.30;;;;;;5086234;28;20043;-67
2022/06/30 12:27:32;;;;;;;14.70;13.45;;;29.90;80.00;;;;;;5087596;28;20048;-67
2022/06/30 12:30:02;;;;;;;13.43;12.20;;;30.10;71.80;;;;;;5086708;28;20653;-67
2022/06/30 12:32:28;;;;;;;17.83;16.13;;;30.30;68.50;;;;;;5089526;28;20101;-68
2022/06/30 12:34:59;;;;;;;19.60;17.83;;;30.30;71.70;;;;;;5088292;28;20063;-67
2022/06/30 12:37:37;;;;;;;19.50;17.50;;;30.10;82.70;;;;;;5089159;28;20048;-67
2022/06/30 12:40:10;;;;;;;20.48;18.40;;;30.00;89.50;;;;;;5077519;28;20052;-66
2022/06/30 12:42:57;;;;;;;28.15;16.60;;;30.00;90.80;;;;;;5089267;28;20044;-67
2022/06/30 12:45:48;;;;;;;19.52;17.70;;;30.30;91.20;;;;;;5089441;28;20048;-67